createdAt,value
2022-11-22T00:04:33.944Z,83.77
2022-11-22T00:09:32.810Z,83.60
2022-11-22T00:14:33.203Z,82.81
2022-11-22T00:19:32.228Z,83.67
2022-11-22T00:24:31.055Z,83.44
2022-11-22T00:29:30.348Z,83.42
2022-11-22T00:34:30.919Z,82.28
2022-11-22T00:39:30.003Z,82.84
2022-11-22T00:44:29.063Z,81.83
2022-11-22T00:49:28.129Z,81.37
2022-11-22T00:54:28.682Z,82.91
2022-11-22T00:59:27.660Z,82.01
2022-11-22T01:04:26.589Z,83.06
2022-11-22T01:09:25.785Z,82.21
2022-11-22T01:14:26.197Z,82.67
2022-11-22T01:19:25.171Z,82.44
2022-11-22T01:24:24.380Z,82.09
2022-11-22T01:29:23.459Z,81.55
2022-11-22T01:34:23.970Z,82.06
2022-11-22T01:39:22.747Z,81.67
2022-11-22T01:44:22.972Z,80.67
2022-11-22T01:49:29.484Z,80.48
2022-11-22T01:54:33.665Z,80.57
2022-11-22T01:59:37.528Z,80.29
2022-11-22T02:04:38.765Z,81.63
2022-11-22T02:09:39.211Z,80.55
2022-11-22T02:14:39.646Z,81.96
2022-11-22T02:19:44.945Z,81.36
2022-11-22T02:24:50.750Z,80.58
2022-11-22T02:29:51.031Z,80.99
2022-11-22T02:34:51.680Z,81.25
2022-11-22T02:39:54.173Z,81.69
2022-11-22T02:44:54.351Z,80.25
2022-11-22T02:49:54.227Z,81.35
2022-11-22T02:54:55.040Z,80.82
2022-11-22T02:59:55.219Z,80.25
2022-11-22T03:04:54.035Z,80.38
2022-11-22T03:09:52.796Z,79.40
2022-11-22T03:14:51.550Z,79.94
2022-11-22T03:19:51.790Z,80.25
2022-11-22T03:24:50.615Z,79.72
2022-11-22T03:29:49.380Z,79.36
2022-11-22T03:34:48.290Z,80.19
2022-11-22T03:39:48.437Z,79.33
2022-11-22T03:44:47.251Z,80.15
2022-11-22T03:49:46.300Z,79.00
2022-11-22T03:54:45.105Z,79.32
2022-11-22T03:59:45.356Z,78.39
2022-11-22T04:04:44.460Z,78.69
2022-11-22T04:09:43.441Z,80.28
2022-11-22T04:14:59.990Z,80.18
2022-11-22T04:20:22.910Z,80.35
2022-11-22T04:25:21.746Z,79.89
2022-11-22T04:30:21.181Z,78.71
2022-11-22T04:35:21.374Z,78.74
2022-11-22T04:40:20.288Z,78.37
2022-11-22T04:45:19.088Z,77.88
2022-11-22T04:50:35.411Z,77.93
2022-11-22T04:55:35.943Z,77.54
2022-11-22T05:00:34.806Z,77.55
2022-11-22T05:05:36.759Z,77.17
2022-11-22T05:10:52.183Z,77.66
2022-11-22T05:15:51.476Z,76.99
2022-11-22T05:20:50.224Z,78.11
2022-11-22T05:25:50.395Z,77.76
2022-11-22T05:30:49.305Z,76.75
2022-11-22T05:35:48.263Z,76.59
2022-11-22T05:40:47.063Z,76.79
2022-11-22T05:45:47.497Z,76.91
2022-11-22T05:50:46.307Z,76.53
2022-11-22T05:55:48.257Z,76.28
2022-11-22T06:00:48.531Z,76.12
2022-11-22T06:05:52.891Z,76.50
2022-11-22T06:10:51.833Z,76.48
2022-11-22T06:15:52.082Z,76.76
2022-11-22T06:20:50.875Z,76.28
2022-11-22T06:25:56.931Z,76.41
2022-11-22T06:31:02.278Z,76.18
2022-11-22T06:36:03.795Z,76.16
2022-11-22T06:41:03.018Z,76.02
2022-11-22T06:46:04.356Z,77.36
2022-11-22T06:51:05.325Z,77.64
2022-11-22T06:56:05.962Z,78.27
2022-11-22T07:01:08.182Z,77.81
2022-11-22T07:06:08.720Z,76.52
2022-11-22T07:11:09.764Z,76.31
2022-11-22T07:16:12.000Z,77.60
2022-11-22T07:21:13.485Z,77.01
2022-11-22T07:26:13.177Z,76.92
2022-11-22T07:31:15.274Z,77.53
2022-11-22T07:36:15.672Z,77.13
2022-11-22T07:41:14.924Z,76.92
2022-11-22T07:46:24.067Z,76.46
2022-11-22T07:51:23.096Z,77.65
2022-11-22T07:56:21.968Z,77.42
2022-11-22T08:01:23.776Z,77.27
2022-11-22T08:06:22.716Z,75.55
2022-11-22T08:11:21.486Z,76.61
2022-11-22T08:16:21.572Z,76.29
2022-11-22T08:21:20.931Z,75.29
2022-11-22T08:26:21.230Z,73.68
2022-11-22T08:31:21.479Z,73.19
2022-11-22T08:36:20.228Z,73.50
2022-11-22T08:41:19.015Z,73.10
2022-11-22T08:46:18.034Z,72.03
2022-11-22T08:51:18.183Z,70.23
2022-11-22T08:56:17.826Z,67.82
2022-11-22T09:01:19.164Z,66.66
2022-11-22T09:11:39.716Z,62.43
2022-11-22T09:16:38.583Z,61.57
2022-11-22T09:21:38.771Z,58.86
2022-11-22T09:26:37.602Z,57.43
2022-11-22T09:31:36.348Z,55.03
2022-11-22T09:36:35.176Z,54.78
2022-11-22T09:42:24.278Z,54.68
2022-11-22T09:47:38.212Z,53.19
2022-11-22T09:52:41.898Z,52.58
2022-11-22T09:57:45.941Z,50.69
2022-11-22T10:03:00.858Z,48.64
2022-11-22T10:08:08.005Z,48.23
2022-11-22T10:13:13.364Z,48.15
2022-11-22T10:18:22.633Z,46.82
2022-11-22T10:23:23.614Z,46.25
2022-11-22T10:28:33.854Z,44.74
2022-11-22T10:33:44.341Z,43.80
2022-11-22T10:39:03.917Z,45.52
2022-11-22T10:44:15.949Z,43.05
2022-11-22T10:49:24.613Z,42.50
2022-11-22T10:54:32.416Z,41.24
2022-11-22T10:59:53.539Z,39.91
2022-11-22T11:04:57.130Z,39.78
2022-11-22T11:10:21.603Z,39.28
2022-11-22T11:15:22.520Z,38.38
2022-11-22T11:20:26.668Z,36.81
2022-11-22T11:25:30.712Z,35.75
2022-11-22T11:30:29.699Z,34.90
2022-11-22T11:35:32.364Z,34.64
2022-11-22T11:40:33.815Z,35.30
2022-11-22T11:45:33.225Z,32.61
2022-11-22T11:50:33.429Z,32.31
2022-11-22T11:55:32.940Z,30.80
2022-11-22T12:00:39.197Z,30.11
2022-11-22T12:05:39.450Z,28.48
2022-11-22T12:10:45.554Z,30.13
2022-11-22T12:15:53.078Z,30.05
2022-11-22T12:21:02.745Z,30.17
2022-11-22T12:26:02.158Z,30.04
2022-11-22T12:31:10.642Z,30.83
2022-11-22T12:36:18.960Z,31.16
2022-11-22T12:41:21.269Z,28.37
2022-11-22T12:46:26.445Z,30.43
2022-11-22T12:51:32.095Z,26.92
2022-11-22T12:56:38.141Z,30.26
2022-11-22T13:01:51.549Z,30.60
2022-11-22T13:06:59.142Z,30.47
2022-11-22T13:12:02.311Z,31.95
2022-11-22T13:17:06.893Z,31.49
2022-11-22T13:22:17.022Z,32.93
2022-11-22T13:27:21.819Z,33.64
2022-11-22T13:32:23.883Z,34.19
2022-11-22T13:37:24.046Z,33.73
2022-11-22T13:42:27.537Z,35.39
2022-11-22T13:47:43.630Z,35.24
2022-11-22T13:52:54.678Z,35.57
2022-11-22T13:57:53.364Z,35.92
2022-11-22T14:02:55.008Z,36.66
2022-11-22T14:07:57.103Z,37.56
2022-11-22T14:13:18.310Z,37.83
2022-11-22T14:18:40.865Z,40.70
2022-11-22T14:23:54.218Z,43.36
2022-11-22T14:29:17.515Z,44.30
2022-11-22T14:34:21.746Z,45.43
2022-11-22T14:40:00.866Z,45.95
2022-11-22T14:45:00.980Z,47.04
2022-11-22T14:50:02.094Z,47.72
2022-11-22T14:55:06.236Z,48.76
2022-11-22T15:00:15.438Z,49.96
2022-11-22T15:09:23.395Z,50.86
2022-11-22T15:11:04.652Z,52.62
2022-11-22T15:59:42.009Z,56.78
2022-11-22T16:04:47.499Z,57.90
2022-11-22T16:09:52.340Z,60.82
2022-11-22T16:14:53.077Z,58.21
2022-11-22T16:19:52.232Z,57.83
2022-11-22T16:24:51.325Z,58.00
2022-11-22T16:29:53.825Z,57.89
2022-11-22T16:35:08.360Z,58.27
2022-11-22T16:40:14.202Z,59.34
2022-11-22T16:45:20.179Z,59.62
2022-11-22T16:50:19.334Z,59.04
2022-11-22T16:55:19.282Z,59.49
2022-11-22T17:00:19.983Z,60.12
2022-11-22T17:05:18.904Z,59.90
2022-11-22T17:10:17.743Z,59.64
2022-11-22T17:15:21.285Z,60.19
2022-11-22T17:20:20.120Z,60.32
2022-11-22T17:25:19.123Z,60.55
2022-11-22T17:30:19.659Z,60.67
2022-11-22T17:35:18.668Z,60.77
2022-11-22T17:40:17.603Z,61.49
2022-11-22T17:45:16.557Z,61.62
2022-11-22T17:50:18.233Z,61.55
2022-11-22T17:55:17.311Z,61.32
2022-11-22T18:00:17.246Z,60.55
2022-11-22T18:05:17.725Z,60.21
2022-11-22T18:10:16.763Z,60.08
2022-11-22T18:15:15.524Z,60.87
2022-11-22T18:20:14.440Z,62.18
2022-11-22T18:25:14.662Z,63.84
2022-11-22T18:30:15.860Z,65.45
2022-11-22T18:35:15.101Z,66.45
2022-11-22T18:40:16.109Z,67.54
2022-11-22T18:45:14.966Z,68.02
2022-11-22T18:55:19.992Z,70.59
2022-11-22T19:00:20.343Z,70.18
2022-11-22T19:05:24.256Z,73.92
2022-11-22T19:10:24.678Z,72.67
2022-11-22T19:15:23.384Z,72.52
2022-11-22T19:20:47.785Z,73.47
2022-11-22T19:25:43.695Z,75.46
2022-11-22T19:30:44.257Z,74.88
2022-11-22T19:35:43.323Z,74.87
2022-11-22T19:40:43.507Z,74.09
2022-11-22T19:45:42.307Z,73.20
2022-11-22T19:50:55.314Z,73.33
2022-11-22T19:55:55.954Z,73.19
2022-11-22T20:00:55.974Z,72.61
2022-11-22T20:06:00.167Z,72.22
2022-11-22T20:11:05.153Z,71.64
2022-11-22T20:16:08.688Z,71.34
2022-11-22T20:21:10.074Z,71.04
2022-11-22T20:26:12.238Z,71.74
2022-11-22T20:31:16.202Z,72.89
2022-11-22T20:36:19.360Z,73.21
2022-11-22T20:41:21.297Z,72.60
2022-11-22T20:46:23.137Z,71.68
2022-11-22T20:51:24.036Z,70.83
2022-11-22T20:56:27.671Z,70.75
2022-11-22T21:01:29.677Z,70.84
2022-11-22T21:06:35.812Z,71.49
2022-11-22T21:11:39.674Z,71.00
2022-11-22T21:16:38.653Z,70.45
2022-11-22T21:21:39.813Z,69.73
2022-11-22T21:26:42.315Z,70.85
2022-11-22T21:31:41.431Z,70.48
2022-11-22T21:36:40.299Z,70.93
2022-11-22T21:41:41.422Z,70.85
2022-11-22T21:46:43.980Z,71.55
2022-11-22T21:51:42.979Z,71.34
2022-11-22T21:56:43.786Z,71.61
2022-11-22T22:02:41.710Z,71.54
2022-11-22T22:07:52.660Z,71.97
2022-11-22T22:13:26.352Z,72.27
2022-11-22T22:18:25.437Z,72.98
2022-11-22T22:23:24.461Z,73.46
2022-11-22T22:28:24.303Z,74.06
2022-11-22T22:33:24.585Z,75.38
2022-11-22T22:38:23.850Z,75.25
2022-11-22T22:43:23.775Z,75.67
2022-11-22T22:48:22.869Z,75.57
2022-11-22T22:53:23.350Z,76.01
2022-11-22T22:58:22.436Z,76.93
2022-11-22T23:03:21.768Z,77.46
2022-11-22T23:08:20.599Z,76.87
2022-11-22T23:13:20.994Z,76.16
2022-11-22T23:18:20.021Z,77.32
2022-11-22T23:23:19.068Z,76.18
2022-11-22T23:28:18.600Z,76.36
2022-11-22T23:33:19.210Z,76.36
2022-11-22T23:38:18.174Z,76.54
2022-11-22T23:43:17.229Z,77.47
2022-11-22T23:48:16.643Z,78.21
2022-11-22T23:53:17.111Z,78.41
2022-11-22T23:58:16.217Z,78.30
